sensor_id;sensor_type;location;lat;lon;timestamp;temperature;humidity
4749;DHT22;2388;53.582;9.962;2023-04-07T00:00:52;7.70;99.90
4749;DHT22;2388;53.582;9.962;2023-04-07T00:03:17;7.60;99.90
4749;DHT22;2388;53.582;9.962;2023-04-07T00:05:43;7.60;99.90
4749;DHT22;2388;53.582;9.962;2023-04-07T00:08:08;7.60;99.90
4749;DHT22;2388;53.582;9.962;2023-04-07T00:10:34;7.60;99.90
4749;DHT22;2388;53.582;9.962;2023-04-07T00:13:00;7.50;99.90
4749;DHT22;2388;53.582;9.962;2023-04-07T00:15:25;7.50;99.90
4749;DHT22;2388;53.582;9.962;2023-04-07T00:17:51;7.50;99.90
4749;DHT22;2388;53.582;9.962;2023-04-07T00:20:16;7.40;99.90
4749;DHT22;2388;53.582;9.962;2023-04-07T00:22:42;7.40;99.90
4749;DHT22;2388;53.582;9.962;2023-04-07T00:25:08;7.50;99.90
4749;DHT22;2388;53.582;9.962;2023-04-07T00:27:33;7.50;99.90
4749;DHT22;2388;53.582;9.962;2023-04-07T00:29:59;7.40;99.90
4749;DHT22;2388;53.582;9.962;2023-04-07T00:32:24;7.40;99.90
4749;DHT22;2388;53.582;9.962;2023-04-07T00:34:50;7.40;99.90
4749;DHT22;2388;53.582;9.962;2023-04-07T00:37:15;7.40;99.90
4749;DHT22;2388;53.582;9.962;2023-04-07T00:39:41;7.30;99.90
4749;DHT22;2388;53.582;9.962;2023-04-07T00:42:06;7.30;99.90
4749;DHT22;2388;53.582;9.962;2023-04-07T00:44:32;7.30;99.90
4749;DHT22;2388;53.582;9.962;2023-04-07T00:46:58;7.30;99.90
4749;DHT22;2388;53.582;9.962;2023-04-07T00:49:25;7.20;99.90
4749;DHT22;2388;53.582;9.962;2023-04-07T00:51:53;7.20;99.90
4749;DHT22;2388;53.582;9.962;2023-04-07T00:54:18;7.20;99.90
4749;DHT22;2388;53.582;9.962;2023-04-07T00:56:45;7.20;99.90
4749;DHT22;2388;53.582;9.962;2023-04-07T00:59:10;7.20;99.90
4749;DHT22;2388;53.582;9.962;2023-04-07T01:01:47;7.10;99.90
4749;DHT22;2388;53.582;9.962;2023-04-07T01:04:20;7.10;99.90
4749;DHT22;2388;53.582;9.962;2023-04-07T01:06:49;7.00;99.90
4749;DHT22;2388;53.582;9.962;2023-04-07T01:09:20;7.00;99.90
4749;DHT22;2388;53.582;9.962;2023-04-07T01:12:32;7.00;99.90
4749;DHT22;2388;53.582;9.962;2023-04-07T01:14:34;7.00;99.90
4749;DHT22;2388;53.582;9.962;2023-04-07T01:17:06;7.00;99.90
4749;DHT22;2388;53.582;9.962;2023-04-07T01:20:02;7.00;99.90
4749;DHT22;2388;53.582;9.962;2023-04-07T01:22:40;7.00;99.90
4749;DHT22;2388;53.582;9.962;2023-04-07T01:28:09;6.90;99.90
4749;DHT22;2388;53.582;9.962;2023-04-07T01:30:39;6.90;99.90
4749;DHT22;2388;53.582;9.962;2023-04-07T01:33:06;6.90;99.90
4749;DHT22;2388;53.582;9.962;2023-04-07T01:35:34;6.90;99.90
4749;DHT22;2388;53.582;9.962;2023-04-07T01:38:02;6.90;99.90
4749;DHT22;2388;53.582;9.962;2023-04-07T01:40:28;6.90;99.90
4749;DHT22;2388;53.582;9.962;2023-04-07T01:42:55;6.90;99.90
4749;DHT22;2388;53.582;9.962;2023-04-07T01:45:21;6.90;99.90
4749;DHT22;2388;53.582;9.962;2023-04-07T01:47:48;6.80;99.90
4749;DHT22;2388;53.582;9.962;2023-04-07T01:50:15;6.80;99.90
4749;DHT22;2388;53.582;9.962;2023-04-07T01:52:41;6.90;99.90
4749;DHT22;2388;53.582;9.962;2023-04-07T01:55:07;6.80;99.90
4749;DHT22;2388;53.582;9.962;2023-04-07T01:57:34;6.70;99.90
4749;DHT22;2388;53.582;9.962;2023-04-07T01:59:59;6.70;99.90
4749;DHT22;2388;53.582;9.962;2023-04-07T02:02:25;6.70;99.90
4749;DHT22;2388;53.582;9.962;2023-04-07T02:04:51;6.70;99.90
4749;DHT22;2388;53.582;9.962;2023-04-07T02:10:13;6.60;99.90
4749;DHT22;2388;53.582;9.962;2023-04-07T02:12:40;6.60;99.90
4749;DHT22;2388;53.582;9.962;2023-04-07T02:15:08;6.60;99.90
4749;DHT22;2388;53.582;9.962;2023-04-07T02:17:38;6.50;99.90
4749;DHT22;2388;53.582;9.962;2023-04-07T02:20:05;6.50;99.90
4749;DHT22;2388;53.582;9.962;2023-04-07T02:22:32;6.90;99.90
4749;DHT22;2388;53.582;9.962;2023-04-07T02:24:58;6.50;99.90
4749;DHT22;2388;53.582;9.962;2023-04-07T02:27:23;6.50;99.90
4749;DHT22;2388;53.582;9.962;2023-04-07T02:29:48;6.50;99.90
4749;DHT22;2388;53.582;9.962;2023-04-07T02:32:14;6.40;99.90
4749;DHT22;2388;53.582;9.962;2023-04-07T02:34:40;6.40;99.90
4749;DHT22;2388;53.582;9.962;2023-04-07T02:37:06;6.40;99.90
4749;DHT22;2388;53.582;9.962;2023-04-07T02:39:31;6.20;99.90
4749;DHT22;2388;53.582;9.962;2023-04-07T02:41:57;6.30;99.90
4749;DHT22;2388;53.582;9.962;2023-04-07T02:44:22;6.20;99.90
4749;DHT22;2388;53.582;9.962;2023-04-07T02:46:48;6.20;99.90
4749;DHT22;2388;53.582;9.962;2023-04-07T02:49:13;6.20;99.90
4749;DHT22;2388;53.582;9.962;2023-04-07T02:51:39;6.10;99.90
4749;DHT22;2388;53.582;9.962;2023-04-07T02:54:04;6.20;99.90
4749;DHT22;2388;53.582;9.962;2023-04-07T02:56:30;6.10;99.90
4749;DHT22;2388;53.582;9.962;2023-04-07T02:58:56;6.10;99.90
4749;DHT22;2388;53.582;9.962;2023-04-07T03:01:22;6.20;99.90
4749;DHT22;2388;53.582;9.962;2023-04-07T03:03:48;6.10;99.90
4749;DHT22;2388;53.582;9.962;2023-04-07T03:06:14;6.10;99.90
4749;DHT22;2388;53.582;9.962;2023-04-07T03:08:39;6.10;99.90
4749;DHT22;2388;53.582;9.962;2023-04-07T03:11:06;6.10;99.90
4749;DHT22;2388;53.582;9.962;2023-04-07T03:13:32;6.10;99.90
4749;DHT22;2388;53.582;9.962;2023-04-07T03:15:57;6.00;99.90
4749;DHT22;2388;53.582;9.962;2023-04-07T03:18:23;6.00;99.90
4749;DHT22;2388;53.582;9.962;2023-04-07T03:20:48;6.00;99.90
4749;DHT22;2388;53.582;9.962;2023-04-07T03:23:14;6.00;99.90
4749;DHT22;2388;53.582;9.962;2023-04-07T03:25:40;6.00;99.90
4749;DHT22;2388;53.582;9.962;2023-04-07T03:28:06;6.00;99.90
4749;DHT22;2388;53.582;9.962;2023-04-07T03:30:31;6.00;99.90
4749;DHT22;2388;53.582;9.962;2023-04-07T03:32:57;5.90;99.90
4749;DHT22;2388;53.582;9.962;2023-04-07T03:35:22;6.00;99.90
4749;DHT22;2388;53.582;9.962;2023-04-07T03:37:48;6.00;99.90
4749;DHT22;2388;53.582;9.962;2023-04-07T03:40:14;5.90;99.90
4749;DHT22;2388;53.582;9.962;2023-04-07T03:42:39;6.00;99.90
4749;DHT22;2388;53.582;9.962;2023-04-07T03:45:05;5.90;99.90
4749;DHT22;2388;53.582;9.962;2023-04-07T03:47:31;5.90;99.90
4749;DHT22;2388;53.582;9.962;2023-04-07T03:49:56;6.00;99.90
4749;DHT22;2388;53.582;9.962;2023-04-07T03:52:22;5.90;99.90
4749;DHT22;2388;53.582;9.962;2023-04-07T03:54:47;6.00;99.90
4749;DHT22;2388;53.582;9.962;2023-04-07T03:57:12;5.90;99.90
4749;DHT22;2388;53.582;9.962;2023-04-07T03:59:38;6.00;99.90
4749;DHT22;2388;53.582;9.962;2023-04-07T04:02:04;5.90;99.90
4749;DHT22;2388;53.582;9.962;2023-04-07T04:04:29;5.90;99.90
4749;DHT22;2388;53.582;9.962;2023-04-07T04:06:55;6.00;99.90
4749;DHT22;2388;53.582;9.962;2023-04-07T04:09:20;5.90;99.90
4749;DHT22;2388;53.582;9.962;2023-04-07T04:11:46;5.80;99.90
4749;DHT22;2388;53.582;9.962;2023-04-07T04:14:11;5.90;99.90
4749;DHT22;2388;53.582;9.962;2023-04-07T04:16:37;5.80;99.90
4749;DHT22;2388;53.582;9.962;2023-04-07T04:19:02;5.80;99.90
4749;DHT22;2388;53.582;9.962;2023-04-07T04:21:28;5.80;99.90
4749;DHT22;2388;53.582;9.962;2023-04-07T04:23:53;5.80;99.90
4749;DHT22;2388;53.582;9.962;2023-04-07T04:26:19;5.80;99.90
4749;DHT22;2388;53.582;9.962;2023-04-07T04:28:45;5.80;99.90
4749;DHT22;2388;53.582;9.962;2023-04-07T04:31:10;5.80;99.90
4749;DHT22;2388;53.582;9.962;2023-04-07T04:33:36;5.80;99.90
4749;DHT22;2388;53.582;9.962;2023-04-07T04:36:01;5.80;99.90
4749;DHT22;2388;53.582;9.962;2023-04-07T04:38:27;5.80;99.90
4749;DHT22;2388;53.582;9.962;2023-04-07T04:40:53;5.80;99.90
4749;DHT22;2388;53.582;9.962;2023-04-07T04:43:18;5.80;99.90
4749;DHT22;2388;53.582;9.962;2023-04-07T04:45:43;5.80;99.90
4749;DHT22;2388;53.582;9.962;2023-04-07T04:48:09;5.70;99.90
4749;DHT22;2388;53.582;9.962;2023-04-07T04:50:35;5.70;99.90
4749;DHT22;2388;53.582;9.962;2023-04-07T04:53:01;5.70;99.90
4749;DHT22;2388;53.582;9.962;2023-04-07T04:55:27;5.80;99.90
4749;DHT22;2388;53.582;9.962;2023-04-07T04:57:52;5.70;99.90
4749;DHT22;2388;53.582;9.962;2023-04-07T05:00:18;5.70;99.90
4749;DHT22;2388;53.582;9.962;2023-04-07T05:02:43;5.70;99.90
4749;DHT22;2388;53.582;9.962;2023-04-07T05:05:11;5.70;99.90
4749;DHT22;2388;53.582;9.962;2023-04-07T05:07:36;5.70;99.90
4749;DHT22;2388;53.582;9.962;2023-04-07T05:10:03;5.70;99.90
4749;DHT22;2388;53.582;9.962;2023-04-07T05:12:28;5.70;99.90
4749;DHT22;2388;53.582;9.962;2023-04-07T05:14:54;5.70;99.90
4749;DHT22;2388;53.582;9.962;2023-04-07T05:17:19;5.70;99.90
4749;DHT22;2388;53.582;9.962;2023-04-07T05:19:45;5.80;99.90
4749;DHT22;2388;53.582;9.962;2023-04-07T05:22:10;5.70;99.90
4749;DHT22;2388;53.582;9.962;2023-04-07T05:24:36;5.70;99.90
4749;DHT22;2388;53.582;9.962;2023-04-07T05:27:01;5.70;99.90
4749;DHT22;2388;53.582;9.962;2023-04-07T05:29:27;5.80;99.90
4749;DHT22;2388;53.582;9.962;2023-04-07T05:31:52;5.70;99.90
4749;DHT22;2388;53.582;9.962;2023-04-07T05:34:18;5.80;99.90
4749;DHT22;2388;53.582;9.962;2023-04-07T05:36:43;5.70;99.90
4749;DHT22;2388;53.582;9.962;2023-04-07T05:39:09;5.80;99.90
4749;DHT22;2388;53.582;9.962;2023-04-07T05:41:34;5.80;99.90
4749;DHT22;2388;53.582;9.962;2023-04-07T05:44:00;5.80;99.90
4749;DHT22;2388;53.582;9.962;2023-04-07T05:46:26;5.80;99.90
4749;DHT22;2388;53.582;9.962;2023-04-07T05:48:51;5.80;99.90
4749;DHT22;2388;53.582;9.962;2023-04-07T05:51:17;5.80;99.90
4749;DHT22;2388;53.582;9.962;2023-04-07T05:53:42;5.90;99.90
4749;DHT22;2388;53.582;9.962;2023-04-07T05:56:08;5.90;99.90
4749;DHT22;2388;53.582;9.962;2023-04-07T05:58:33;5.90;99.90
4749;DHT22;2388;53.582;9.962;2023-04-07T06:00:59;5.90;99.90
4749;DHT22;2388;53.582;9.962;2023-04-07T06:03:24;6.00;99.90
4749;DHT22;2388;53.582;9.962;2023-04-07T06:05:50;6.00;99.90
4749;DHT22;2388;53.582;9.962;2023-04-07T06:08:16;6.00;99.90
4749;DHT22;2388;53.582;9.962;2023-04-07T06:10:41;6.00;99.90
4749;DHT22;2388;53.582;9.962;2023-04-07T06:13:08;6.10;99.90
4749;DHT22;2388;53.582;9.962;2023-04-07T06:15:33;6.20;99.90
4749;DHT22;2388;53.582;9.962;2023-04-07T06:17:59;6.10;99.90
4749;DHT22;2388;53.582;9.962;2023-04-07T06:20:25;6.20;99.90
4749;DHT22;2388;53.582;9.962;2023-04-07T06:22:52;6.30;99.90
4749;DHT22;2388;53.582;9.962;2023-04-07T06:25:18;6.30;99.90
4749;DHT22;2388;53.582;9.962;2023-04-07T06:27:43;6.30;99.90
4749;DHT22;2388;53.582;9.962;2023-04-07T06:30:09;6.30;99.90
4749;DHT22;2388;53.582;9.962;2023-04-07T06:32:35;6.40;99.90
4749;DHT22;2388;53.582;9.962;2023-04-07T06:35:00;6.40;99.90
4749;DHT22;2388;53.582;9.962;2023-04-07T06:37:26;6.40;99.90
4749;DHT22;2388;53.582;9.962;2023-04-07T06:39:52;6.40;99.90
4749;DHT22;2388;53.582;9.962;2023-04-07T06:42:17;6.40;99.90
4749;DHT22;2388;53.582;9.962;2023-04-07T06:44:43;6.40;99.90
4749;DHT22;2388;53.582;9.962;2023-04-07T06:47:08;6.50;99.90
4749;DHT22;2388;53.582;9.962;2023-04-07T06:49:34;6.60;99.90
4749;DHT22;2388;53.582;9.962;2023-04-07T06:51:59;6.60;99.90
4749;DHT22;2388;53.582;9.962;2023-04-07T06:54:25;6.60;99.90
4749;DHT22;2388;53.582;9.962;2023-04-07T06:56:50;6.60;99.90
4749;DHT22;2388;53.582;9.962;2023-04-07T06:59:16;6.70;99.90
4749;DHT22;2388;53.582;9.962;2023-04-07T07:01:41;6.70;99.90
4749;DHT22;2388;53.582;9.962;2023-04-07T07:04:08;6.80;99.90
4749;DHT22;2388;53.582;9.962;2023-04-07T07:06:33;6.80;99.90
4749;DHT22;2388;53.582;9.962;2023-04-07T07:08:59;6.80;99.90
4749;DHT22;2388;53.582;9.962;2023-04-07T07:11:25;6.80;99.90
4749;DHT22;2388;53.582;9.962;2023-04-07T07:13:51;6.80;99.90
4749;DHT22;2388;53.582;9.962;2023-04-07T07:16:16;6.90;99.90
4749;DHT22;2388;53.582;9.962;2023-04-07T07:18:42;6.90;99.90
4749;DHT22;2388;53.582;9.962;2023-04-07T07:21:07;7.00;99.90
4749;DHT22;2388;53.582;9.962;2023-04-07T07:23:33;7.00;99.90
4749;DHT22;2388;53.582;9.962;2023-04-07T07:25:59;7.00;99.90
4749;DHT22;2388;53.582;9.962;2023-04-07T07:28:24;7.10;99.90
4749;DHT22;2388;53.582;9.962;2023-04-07T07:30:50;7.20;99.90
4749;DHT22;2388;53.582;9.962;2023-04-07T07:33:16;7.30;99.90
4749;DHT22;2388;53.582;9.962;2023-04-07T07:35:41;7.30;99.90
4749;DHT22;2388;53.582;9.962;2023-04-07T07:38:07;7.50;99.90
4749;DHT22;2388;53.582;9.962;2023-04-07T07:40:32;7.50;99.90
4749;DHT22;2388;53.582;9.962;2023-04-07T07:42:59;7.60;99.90
4749;DHT22;2388;53.582;9.962;2023-04-07T07:45:25;7.60;99.90
4749;DHT22;2388;53.582;9.962;2023-04-07T07:47:50;7.70;99.90
4749;DHT22;2388;53.582;9.962;2023-04-07T07:50:16;7.80;99.90
4749;DHT22;2388;53.582;9.962;2023-04-07T07:52:41;7.90;99.90
4749;DHT22;2388;53.582;9.962;2023-04-07T07:55:07;7.90;99.90
4749;DHT22;2388;53.582;9.962;2023-04-07T07:57:33;8.00;99.90
4749;DHT22;2388;53.582;9.962;2023-04-07T07:59:59;8.00;99.90
4749;DHT22;2388;53.582;9.962;2023-04-07T08:02:24;8.10;99.90
4749;DHT22;2388;53.582;9.962;2023-04-07T08:04:55;8.10;99.90
4749;DHT22;2388;53.582;9.962;2023-04-07T08:07:21;8.20;99.90
4749;DHT22;2388;53.582;9.962;2023-04-07T08:09:46;8.30;99.90
4749;DHT22;2388;53.582;9.962;2023-04-07T08:12:12;8.30;99.90
4749;DHT22;2388;53.582;9.962;2023-04-07T08:14:38;8.50;99.90
4749;DHT22;2388;53.582;9.962;2023-04-07T08:17:03;8.50;99.90
4749;DHT22;2388;53.582;9.962;2023-04-07T08:19:29;8.50;99.90
4749;DHT22;2388;53.582;9.962;2023-04-07T08:21:54;8.60;99.90
4749;DHT22;2388;53.582;9.962;2023-04-07T08:24:20;8.80;99.90
4749;DHT22;2388;53.582;9.962;2023-04-07T08:26:45;8.80;99.90
4749;DHT22;2388;53.582;9.962;2023-04-07T08:29:11;8.90;99.90
4749;DHT22;2388;53.582;9.962;2023-04-07T08:31:36;8.90;99.90
4749;DHT22;2388;53.582;9.962;2023-04-07T08:34:02;9.00;99.90
4749;DHT22;2388;53.582;9.962;2023-04-07T08:36:27;9.00;99.90
4749;DHT22;2388;53.582;9.962;2023-04-07T08:38:54;9.00;99.90
4749;DHT22;2388;53.582;9.962;2023-04-07T08:41:40;9.10;99.90
4749;DHT22;2388;53.582;9.962;2023-04-07T08:44:07;9.00;99.90
4749;DHT22;2388;53.582;9.962;2023-04-07T08:46:33;9.20;99.90
4749;DHT22;2388;53.582;9.962;2023-04-07T08:49:00;9.30;99.90
4749;DHT22;2388;53.582;9.962;2023-04-07T08:51:28;9.30;99.90
4749;DHT22;2388;53.582;9.962;2023-04-07T08:53:56;9.30;99.90
4749;DHT22;2388;53.582;9.962;2023-04-07T08:56:23;9.30;99.90
4749;DHT22;2388;53.582;9.962;2023-04-07T08:58:48;9.30;99.90
4749;DHT22;2388;53.582;9.962;2023-04-07T09:01:15;9.40;99.90
4749;DHT22;2388;53.582;9.962;2023-04-07T09:03:42;9.40;99.90
4749;DHT22;2388;53.582;9.962;2023-04-07T09:06:09;9.60;99.90
4749;DHT22;2388;53.582;9.962;2023-04-07T09:08:35;9.70;99.90
4749;DHT22;2388;53.582;9.962;2023-04-07T09:11:01;9.70;99.90
4749;DHT22;2388;53.582;9.962;2023-04-07T09:13:27;9.70;99.90
4749;DHT22;2388;53.582;9.962;2023-04-07T09:15:52;9.70;99.90
4749;DHT22;2388;53.582;9.962;2023-04-07T09:18:18;9.80;99.90
4749;DHT22;2388;53.582;9.962;2023-04-07T09:21:01;9.80;99.90
4749;DHT22;2388;53.582;9.962;2023-04-07T09:23:34;9.80;99.90
4749;DHT22;2388;53.582;9.962;2023-04-07T09:28:44;9.90;99.90
4749;DHT22;2388;53.582;9.962;2023-04-07T09:31:10;9.90;99.90
4749;DHT22;2388;53.582;9.962;2023-04-07T09:33:35;9.90;99.90
4749;DHT22;2388;53.582;9.962;2023-04-07T09:36:02;10.00;99.90
4749;DHT22;2388;53.582;9.962;2023-04-07T09:38:33;9.90;99.90
4749;DHT22;2388;53.582;9.962;2023-04-07T09:41:14;9.90;99.90
4749;DHT22;2388;53.582;9.962;2023-04-07T09:43:44;9.90;99.90
4749;DHT22;2388;53.582;9.962;2023-04-07T09:46:12;10.00;99.90
4749;DHT22;2388;53.582;9.962;2023-04-07T09:48:39;10.00;99.90
4749;DHT22;2388;53.582;9.962;2023-04-07T09:53:46;10.10;99.90
4749;DHT22;2388;53.582;9.962;2023-04-07T09:56:23;10.20;99.90
4749;DHT22;2388;53.582;9.962;2023-04-07T09:58:49;10.20;99.90
4749;DHT22;2388;53.582;9.962;2023-04-07T10:01:19;10.20;99.90
4749;DHT22;2388;53.582;9.962;2023-04-07T10:03:45;10.30;99.90
4749;DHT22;2388;53.582;9.962;2023-04-07T10:06:12;10.30;99.90
4749;DHT22;2388;53.582;9.962;2023-04-07T10:08:39;10.30;99.90
4749;DHT22;2388;53.582;9.962;2023-04-07T10:11:05;10.40;99.90
4749;DHT22;2388;53.582;9.962;2023-04-07T10:13:33;10.40;99.90
4749;DHT22;2388;53.582;9.962;2023-04-07T10:16:04;10.50;99.90
4749;DHT22;2388;53.582;9.962;2023-04-07T10:18:32;10.50;99.90
4749;DHT22;2388;53.582;9.962;2023-04-07T10:21:06;10.50;99.90
4749;DHT22;2388;53.582;9.962;2023-04-07T10:26:15;10.60;99.90
4749;DHT22;2388;53.582;9.962;2023-04-07T10:28:45;10.60;99.90
4749;DHT22;2388;53.582;9.962;2023-04-07T10:31:12;10.70;99.90
4749;DHT22;2388;53.582;9.962;2023-04-07T10:33:52;10.50;99.90
4749;DHT22;2388;53.582;9.962;2023-04-07T10:36:19;10.50;99.90
4749;DHT22;2388;53.582;9.962;2023-04-07T10:41:37;10.40;99.90
4749;DHT22;2388;53.582;9.962;2023-04-07T10:44:03;10.50;99.90
4749;DHT22;2388;53.582;9.962;2023-04-07T10:49:10;10.70;99.90
4749;DHT22;2388;53.582;9.962;2023-04-07T10:51:36;10.60;99.90
4749;DHT22;2388;53.582;9.962;2023-04-07T10:54:21;10.70;99.90
4749;DHT22;2388;53.582;9.962;2023-04-07T10:59:31;10.90;99.90
4749;DHT22;2388;53.582;9.962;2023-04-07T11:04:39;11.10;99.90
4749;DHT22;2388;53.582;9.962;2023-04-07T11:07:06;11.30;99.90
4749;DHT22;2388;53.582;9.962;2023-04-07T11:09:31;11.10;99.90
4749;DHT22;2388;53.582;9.962;2023-04-07T11:11:57;11.30;99.90
4749;DHT22;2388;53.582;9.962;2023-04-07T11:14:30;11.20;99.90
4749;DHT22;2388;53.582;9.962;2023-04-07T11:16:56;11.30;99.90
4749;DHT22;2388;53.582;9.962;2023-04-07T11:19:22;11.30;99.90
4749;DHT22;2388;53.582;9.962;2023-04-07T11:21:47;11.40;99.90
4749;DHT22;2388;53.582;9.962;2023-04-07T11:24:32;11.50;99.90
4749;DHT22;2388;53.582;9.962;2023-04-07T11:26:58;11.70;99.90
4749;DHT22;2388;53.582;9.962;2023-04-07T11:29:30;11.80;99.90
4749;DHT22;2388;53.582;9.962;2023-04-07T11:32:01;11.70;99.90
4749;DHT22;2388;53.582;9.962;2023-04-07T11:34:31;11.70;99.90
4749;DHT22;2388;53.582;9.962;2023-04-07T11:36:58;11.90;99.90
4749;DHT22;2388;53.582;9.962;2023-04-07T11:39:25;12.10;99.90
4749;DHT22;2388;53.582;9.962;2023-04-07T11:41:56;12.00;99.90
4749;DHT22;2388;53.582;9.962;2023-04-07T11:44:21;11.90;99.90
4749;DHT22;2388;53.582;9.962;2023-04-07T11:46:55;11.90;99.90
4749;DHT22;2388;53.582;9.962;2023-04-07T11:49:22;12.10;99.90
4749;DHT22;2388;53.582;9.962;2023-04-07T11:51:57;12.10;99.90
4749;DHT22;2388;53.582;9.962;2023-04-07T11:54:22;12.10;99.90
4749;DHT22;2388;53.582;9.962;2023-04-07T11:56:48;12.10;99.90
4749;DHT22;2388;53.582;9.962;2023-04-07T11:59:21;12.30;99.90
4749;DHT22;2388;53.582;9.962;2023-04-07T12:01:48;12.30;99.90
4749;DHT22;2388;53.582;9.962;2023-04-07T12:04:14;12.40;99.90
4749;DHT22;2388;53.582;9.962;2023-04-07T12:06:43;12.50;99.90
4749;DHT22;2388;53.582;9.962;2023-04-07T12:09:28;12.50;99.90
4749;DHT22;2388;53.582;9.962;2023-04-07T12:11:54;12.50;99.90
4749;DHT22;2388;53.582;9.962;2023-04-07T12:14:21;12.40;99.90
4749;DHT22;2388;53.582;9.962;2023-04-07T12:16:46;12.40;99.90
4749;DHT22;2388;53.582;9.962;2023-04-07T12:19:12;12.60;99.90
4749;DHT22;2388;53.582;9.962;2023-04-07T12:21:37;12.60;99.90
4749;DHT22;2388;53.582;9.962;2023-04-07T12:24:03;12.70;99.90
4749;DHT22;2388;53.582;9.962;2023-04-07T12:26:28;12.70;99.90
4749;DHT22;2388;53.582;9.962;2023-04-07T12:28:54;12.70;99.90
4749;DHT22;2388;53.582;9.962;2023-04-07T12:31:20;12.90;99.90
4749;DHT22;2388;53.582;9.962;2023-04-07T12:33:46;13.10;99.90
4749;DHT22;2388;53.582;9.962;2023-04-07T12:36:11;13.50;99.90
4749;DHT22;2388;53.582;9.962;2023-04-07T12:38:37;13.80;99.90
4749;DHT22;2388;53.582;9.962;2023-04-07T12:41:02;14.00;99.90
4749;DHT22;2388;53.582;9.962;2023-04-07T12:43:29;13.90;99.90
4749;DHT22;2388;53.582;9.962;2023-04-07T12:45:54;13.80;99.90
4749;DHT22;2388;53.582;9.962;2023-04-07T12:48:20;13.90;99.90
4749;DHT22;2388;53.582;9.962;2023-04-07T12:50:45;14.00;99.90
4749;DHT22;2388;53.582;9.962;2023-04-07T12:53:11;14.10;99.90
4749;DHT22;2388;53.582;9.962;2023-04-07T12:55:37;14.30;99.90
4749;DHT22;2388;53.582;9.962;2023-04-07T12:58:03;14.50;99.90
4749;DHT22;2388;53.582;9.962;2023-04-07T13:00:29;14.70;99.90
4749;DHT22;2388;53.582;9.962;2023-04-07T13:02:54;14.60;99.90
4749;DHT22;2388;53.582;9.962;2023-04-07T13:05:20;15.00;99.90
4749;DHT22;2388;53.582;9.962;2023-04-07T13:07:46;14.70;99.90
4749;DHT22;2388;53.582;9.962;2023-04-07T13:10:11;14.60;99.90
4749;DHT22;2388;53.582;9.962;2023-04-07T13:12:38;14.50;99.90
4749;DHT22;2388;53.582;9.962;2023-04-07T13:15:05;14.70;99.90
4749;DHT22;2388;53.582;9.962;2023-04-07T13:17:32;14.60;99.90
4749;DHT22;2388;53.582;9.962;2023-04-07T13:19:57;14.40;99.90
4749;DHT22;2388;53.582;9.962;2023-04-07T13:22:23;14.50;99.90
4749;DHT22;2388;53.582;9.962;2023-04-07T13:24:49;14.70;99.90
4749;DHT22;2388;53.582;9.962;2023-04-07T13:27:15;14.70;99.90
4749;DHT22;2388;53.582;9.962;2023-04-07T13:29:40;14.90;99.90
4749;DHT22;2388;53.582;9.962;2023-04-07T13:32:07;15.10;99.90
4749;DHT22;2388;53.582;9.962;2023-04-07T13:34:34;14.70;99.90
4749;DHT22;2388;53.582;9.962;2023-04-07T13:37:01;14.80;99.90
4749;DHT22;2388;53.582;9.962;2023-04-07T13:39:27;15.10;99.90
4749;DHT22;2388;53.582;9.962;2023-04-07T13:41:53;15.10;99.90
4749;DHT22;2388;53.582;9.962;2023-04-07T13:44:18;14.90;99.90
4749;DHT22;2388;53.582;9.962;2023-04-07T13:46:44;14.70;99.90
4749;DHT22;2388;53.582;9.962;2023-04-07T13:49:10;14.50;99.90
4749;DHT22;2388;53.582;9.962;2023-04-07T13:51:36;14.40;99.90
4749;DHT22;2388;53.582;9.962;2023-04-07T13:54:02;14.20;99.90
4749;DHT22;2388;53.582;9.962;2023-04-07T13:56:27;13.80;99.90
4749;DHT22;2388;53.582;9.962;2023-04-07T13:58:53;13.40;99.90
4749;DHT22;2388;53.582;9.962;2023-04-07T14:01:19;13.10;99.90
4749;DHT22;2388;53.582;9.962;2023-04-07T14:03:44;13.00;99.90
4749;DHT22;2388;53.582;9.962;2023-04-07T14:06:11;12.80;99.90
4749;DHT22;2388;53.582;9.962;2023-04-07T14:08:36;12.60;99.90
4749;DHT22;2388;53.582;9.962;2023-04-07T14:11:02;12.70;99.90
4749;DHT22;2388;53.582;9.962;2023-04-07T14:13:27;12.50;99.90
4749;DHT22;2388;53.582;9.962;2023-04-07T14:15:53;12.50;99.90
4749;DHT22;2388;53.582;9.962;2023-04-07T14:18:18;12.50;99.90
4749;DHT22;2388;53.582;9.962;2023-04-07T14:20:44;12.50;99.90
4749;DHT22;2388;53.582;9.962;2023-04-07T14:23:09;12.50;99.90
4749;DHT22;2388;53.582;9.962;2023-04-07T14:25:35;12.40;99.90
4749;DHT22;2388;53.582;9.962;2023-04-07T14:28:01;12.30;99.90
4749;DHT22;2388;53.582;9.962;2023-04-07T14:30:26;12.40;99.90
4749;DHT22;2388;53.582;9.962;2023-04-07T14:32:52;12.50;99.90
4749;DHT22;2388;53.582;9.962;2023-04-07T14:35:18;12.50;99.90
4749;DHT22;2388;53.582;9.962;2023-04-07T14:37:43;12.50;99.90
4749;DHT22;2388;53.582;9.962;2023-04-07T14:40:09;12.10;99.90
4749;DHT22;2388;53.582;9.962;2023-04-07T14:42:35;11.90;99.90
4749;DHT22;2388;53.582;9.962;2023-04-07T14:45:01;11.60;99.90
4749;DHT22;2388;53.582;9.962;2023-04-07T14:47:27;11.60;99.90
4749;DHT22;2388;53.582;9.962;2023-04-07T14:49:52;11.40;99.90
4749;DHT22;2388;53.582;9.962;2023-04-07T14:52:19;11.40;99.90
4749;DHT22;2388;53.582;9.962;2023-04-07T14:54:46;11.00;99.90
4749;DHT22;2388;53.582;9.962;2023-04-07T14:57:11;10.80;99.90
4749;DHT22;2388;53.582;9.962;2023-04-07T14:59:37;10.60;99.90
4749;DHT22;2388;53.582;9.962;2023-04-07T15:02:02;10.50;99.90
4749;DHT22;2388;53.582;9.962;2023-04-07T15:04:28;10.20;99.90
4749;DHT22;2388;53.582;9.962;2023-04-07T15:06:53;10.00;99.90
4749;DHT22;2388;53.582;9.962;2023-04-07T15:09:19;10.00;99.90
4749;DHT22;2388;53.582;9.962;2023-04-07T15:11:44;10.10;99.90
4749;DHT22;2388;53.582;9.962;2023-04-07T15:14:11;10.10;99.90
4749;DHT22;2388;53.582;9.962;2023-04-07T15:16:36;10.00;99.90
4749;DHT22;2388;53.582;9.962;2023-04-07T15:19:02;10.00;99.90
4749;DHT22;2388;53.582;9.962;2023-04-07T15:21:27;9.90;99.90
4749;DHT22;2388;53.582;9.962;2023-04-07T15:23:53;10.00;99.90
4749;DHT22;2388;53.582;9.962;2023-04-07T15:26:18;10.00;99.90
4749;DHT22;2388;53.582;9.962;2023-04-07T15:28:44;9.90;99.90
4749;DHT22;2388;53.582;9.962;2023-04-07T15:31:09;9.80;99.90
4749;DHT22;2388;53.582;9.962;2023-04-07T15:33:36;9.70;99.90
4749;DHT22;2388;53.582;9.962;2023-04-07T15:36:03;9.80;99.90
4749;DHT22;2388;53.582;9.962;2023-04-07T15:38:28;10.00;99.90
4749;DHT22;2388;53.582;9.962;2023-04-07T15:40:54;10.10;99.90
4749;DHT22;2388;53.582;9.962;2023-04-07T15:43:19;10.10;99.90
4749;DHT22;2388;53.582;9.962;2023-04-07T15:45:46;10.10;99.90
4749;DHT22;2388;53.582;9.962;2023-04-07T15:48:12;10.00;99.90
4749;DHT22;2388;53.582;9.962;2023-04-07T15:50:37;10.10;99.90
4749;DHT22;2388;53.582;9.962;2023-04-07T15:53:03;10.10;99.90
4749;DHT22;2388;53.582;9.962;2023-04-07T15:55:33;10.10;99.90
4749;DHT22;2388;53.582;9.962;2023-04-07T15:57:59;9.80;99.90
4749;DHT22;2388;53.582;9.962;2023-04-07T16:00:26;9.60;99.90
4749;DHT22;2388;53.582;9.962;2023-04-07T16:02:52;9.40;99.90
4749;DHT22;2388;53.582;9.962;2023-04-07T16:05:18;9.40;99.90
4749;DHT22;2388;53.582;9.962;2023-04-07T16:07:44;9.30;99.90
4749;DHT22;2388;53.582;9.962;2023-04-07T16:10:09;9.30;99.90
4749;DHT22;2388;53.582;9.962;2023-04-07T16:12:37;9.40;99.90
4749;DHT22;2388;53.582;9.962;2023-04-07T16:15:04;9.30;99.90
4749;DHT22;2388;53.582;9.962;2023-04-07T16:17:29;9.30;99.90
4749;DHT22;2388;53.582;9.962;2023-04-07T16:19:55;9.20;99.90
4749;DHT22;2388;53.582;9.962;2023-04-07T16:22:20;8.90;99.90
4749;DHT22;2388;53.582;9.962;2023-04-07T16:24:46;8.80;99.90
4749;DHT22;2388;53.582;9.962;2023-04-07T16:27:11;8.70;99.90
4749;DHT22;2388;53.582;9.962;2023-04-07T16:29:37;8.60;99.90
4749;DHT22;2388;53.582;9.962;2023-04-07T16:32:02;8.50;99.90